Time;durP1;ratioP1;P1;durP2;ratioP2;P2;SDS_P1;SDS_P2;PMS_P1;PMS_P2;Temp;Humidity;BMP_temperature;BMP_pressure;BME280_temperature;BME280_humidity;BME280_pressure;Samples;Min_cycle;Max_cycle;Signal;HPM_P1;HPM_P2
2022/05/08 00:00:22;;;;;;;4.82;2.92;;;15.20;82.80;;;;;;4947932;28;20145;-75
2022/05/08 00:02:50;;;;;;;4.53;3.13;;;15.20;82.70;;;;;;4948728;28;20074;-75
2022/05/08 00:05:16;;;;;;;3.83;2.35;;;15.30;82.80;;;;;;4944089;28;20077;-75
2022/05/08 00:07:42;;;;;;;5.18;3.38;;;15.30;83.10;;;;;;4953727;28;20109;-75
2022/05/08 00:10:08;;;;;;;3.63;2.72;;;15.30;82.90;;;;;;4950237;28;20446;-75
2022/05/08 00:12:33;;;;;;;4.72;3.40;;;15.30;83.00;;;;;;4954026;28;20034;-75
2022/05/08 00:15:01;;;;;;;5.43;3.42;;;15.30;82.90;;;;;;4954228;28;20041;-75
2022/05/08 00:17:29;;;;;;;4.28;3.30;;;15.30;83.10;;;;;;4951055;28;20039;-74
2022/05/08 00:19:55;;;;;;;4.65;3.22;;;15.40;83.10;;;;;;4947665;28;20063;-75
2022/05/08 00:22:21;;;;;;;4.57;2.90;;;15.30;83.00;;;;;;4947074;28;20039;-74
2022/05/08 00:24:47;;;;;;;4.03;3.03;;;15.30;83.00;;;;;;4957920;28;20498;-75
2022/05/08 00:27:12;;;;;;;4.63;3.83;;;15.30;83.00;;;;;;4954951;28;20066;-75
2022/05/08 00:29:38;;;;;;;5.57;3.33;;;15.30;83.10;;;;;;4935624;28;20030;-74
2022/05/08 00:32:04;;;;;;;4.80;3.10;;;15.40;83.30;;;;;;4952857;28;20578;-75
2022/05/08 00:34:32;;;;;;;4.13;2.78;;;15.40;83.40;;;;;;4951504;28;20089;-75
2022/05/08 00:36:59;;;;;;;5.68;3.30;;;15.40;83.40;;;;;;4950642;28;20129;-75
2022/05/08 00:39:25;;;;;;;4.53;3.58;;;15.30;83.30;;;;;;4952430;28;20118;-74
2022/05/08 00:41:50;;;;;;;4.20;3.28;;;15.40;83.40;;;;;;4954201;28;20067;-75
2022/05/08 00:44:16;;;;;;;5.88;3.80;;;15.40;83.30;;;;;;4953433;28;20035;-74
2022/05/08 00:46:42;;;;;;;5.38;3.15;;;15.40;83.30;;;;;;4954461;28;20466;-75
2022/05/08 00:49:08;;;;;;;3.67;3.00;;;15.40;83.30;;;;;;4953357;28;20031;-76
2022/05/08 00:51:36;;;;;;;4.82;3.17;;;15.40;83.40;;;;;;4953965;28;20031;-70
2022/05/08 00:54:03;;;;;;;5.57;3.53;;;15.40;83.30;;;;;;4956192;28;20816;-79
2022/05/08 00:56:29;;;;;;;5.40;3.92;;;15.30;83.40;;;;;;4961665;28;20043;-79
2022/05/08 00:58:56;;;;;;;5.93;3.08;;;15.20;83.60;;;;;;4962132;28;20030;-79
2022/05/08 01:01:22;;;;;;;5.25;3.38;;;15.20;83.90;;;;;;4961017;28;20035;-78
2022/05/08 01:03:48;;;;;;;4.13;3.22;;;15.10;84.00;;;;;;4964178;28;20154;-78
2022/05/08 01:06:18;;;;;;;4.90;3.33;;;15.10;84.10;;;;;;4974048;28;20034;-78
2022/05/08 01:08:50;;;;;;;5.53;3.72;;;15.10;84.40;;;;;;4967905;28;20573;-79
2022/05/08 01:11:17;;;;;;;7.70;3.60;;;15.10;85.00;;;;;;4963399;28;20039;-78
2022/05/08 01:13:44;;;;;;;6.18;3.38;;;15.10;84.20;;;;;;4969516;28;20126;-79
2022/05/08 01:16:13;;;;;;;3.90;3.13;;;15.10;84.30;;;;;;4966062;28;20019;-78
2022/05/08 01:18:40;;;;;;;4.10;2.83;;;15.00;84.30;;;;;;4963496;28;20117;-79
2022/05/08 01:21:10;;;;;;;4.97;2.63;;;15.00;84.30;;;;;;4968467;28;20035;-79
2022/05/08 01:23:37;;;;;;;5.47;3.00;;;15.00;84.00;;;;;;4960721;28;20039;-79
2022/05/08 01:26:03;;;;;;;4.05;3.05;;;15.00;83.40;;;;;;4968343;28;20058;-79
2022/05/08 01:28:29;;;;;;;3.42;2.67;;;15.00;83.40;;;;;;4967308;28;20038;-79
2022/05/08 01:30:55;;;;;;;3.92;2.40;;;15.00;82.40;;;;;;4958086;28;20035;-79
2022/05/08 01:33:22;;;;;;;2.90;2.05;;;15.00;82.10;;;;;;4965774;28;20049;-78
2022/05/08 01:35:49;;;;;;;3.28;2.22;;;15.10;81.20;;;;;;4967840;28;20027;-79
2022/05/08 01:38:17;;;;;;;2.78;2.20;;;15.10;81.60;;;;;;4967985;28;20122;-78
2022/05/08 01:40:43;;;;;;;1.95;1.80;;;15.10;81.60;;;;;;4967959;28;20101;-79
2022/05/08 01:43:10;;;;;;;2.58;1.40;;;15.10;80.60;;;;;;4966226;28;20069;-78
2022/05/08 01:45:36;;;;;;;2.03;1.38;;;15.10;79.30;;;;;;4967656;28;20058;-79
2022/05/08 01:50:58;;;;;;;3.65;1.45;;;15.00;78.30;;;;;;4968534;28;20069;-78
2022/05/08 01:53:31;;;;;;;1.63;1.30;;;14.90;78.50;;;;;;4964008;28;20136;-79
2022/05/08 01:55:57;;;;;;;2.30;1.48;;;14.80;78.50;;;;;;4968221;28;20038;-77
2022/05/08 01:58:25;;;;;;;1.58;1.48;;;14.70;79.00;;;;;;4967104;28;20044;-78
2022/05/08 02:00:52;;;;;;;2.75;1.38;;;14.60;79.50;;;;;;4964469;28;20030;-79
2022/05/08 02:03:22;;;;;;;2.55;1.40;;;14.50;79.70;;;;;;4965606;28;20093;-79
2022/05/08 02:05:48;;;;;;;1.75;1.30;;;14.50;80.10;;;;;;4947508;28;20041;-79
2022/05/08 02:08:14;;;;;;;1.83;1.30;;;14.40;80.50;;;;;;4957884;28;20558;-78
2022/05/08 02:10:43;;;;;;;1.67;1.23;;;14.30;80.90;;;;;;4959653;28;20035;-78
2022/05/08 02:13:09;;;;;;;2.72;1.17;;;14.30;80.80;;;;;;4958233;28;20050;-78
2022/05/08 02:15:35;;;;;;;1.20;1.10;;;14.40;80.70;;;;;;4959325;28;20516;-78
2022/05/08 02:18:04;;;;;;;2.13;1.30;;;14.40;80.80;;;;;;4939732;28;20031;-78
2022/05/08 02:20:31;;;;;;;1.45;1.35;;;14.40;80.10;;;;;;4946483;28;20035;-78
2022/05/08 02:22:58;;;;;;;1.40;1.20;;;14.40;79.80;;;;;;4939710;28;20065;-78
2022/05/08 02:25:24;;;;;;;2.03;1.00;;;14.50;79.50;;;;;;4962953;28;20035;-78
2022/05/08 02:27:51;;;;;;;2.33;1.17;;;14.50;79.70;;;;;;4946021;28;20065;-79
2022/05/08 02:30:22;;;;;;;3.15;1.40;;;14.50;80.00;;;;;;4963951;28;20058;-79
2022/05/08 02:32:49;;;;;;;1.98;1.50;;;14.60;79.90;;;;;;4959207;28;20089;-78
2022/05/08 02:35:17;;;;;;;1.60;1.27;;;14.60;79.40;;;;;;4962494;28;20089;-78
2022/05/08 02:37:43;;;;;;;1.70;1.40;;;14.60;79.20;;;;;;4959839;28;20023;-79
2022/05/08 02:40:10;;;;;;;1.30;0.88;;;14.70;79.00;;;;;;4963314;28;20065;-79
2022/05/08 02:42:37;;;;;;;1.20;1.10;;;14.70;78.60;;;;;;4955485;28;20045;-78
2022/05/08 02:45:04;;;;;;;0.98;0.88;;;14.70;78.60;;;;;;4963293;28;20117;-79
2022/05/08 02:47:31;;;;;;;1.40;1.30;;;14.70;78.50;;;;;;4946109;28;20030;-78
2022/05/08 02:49:57;;;;;;;2.03;1.20;;;14.70;78.60;;;;;;4960025;28;20033;-79
2022/05/08 02:52:23;;;;;;;1.75;1.15;;;14.70;78.50;;;;;;4972551;28;20400;-78
2022/05/08 02:54:48;;;;;;;1.40;1.13;;;14.70;78.30;;;;;;4960581;28;20117;-79
2022/05/08 03:00:17;;;;;;;1.17;0.98;;;14.70;78.30;;;;;;4963978;28;20379;-78
2022/05/08 03:02:42;;;;;;;1.20;1.10;;;14.70;78.30;;;;;;4960359;28;20039;-79
2022/05/08 03:05:08;;;;;;;1.15;1.02;;;14.60;78.40;;;;;;4963713;28;20601;-79
2022/05/08 03:07:34;;;;;;;1.40;1.10;;;14.60;78.90;;;;;;4960459;28;20125;-78
2022/05/08 03:10:01;;;;;;;1.13;1.00;;;14.60;78.90;;;;;;4946208;28;20574;-79
2022/05/08 03:12:26;;;;;;;1.20;1.10;;;14.50;78.80;;;;;;4961858;28;20046;-79
2022/05/08 03:14:52;;;;;;;1.10;1.02;;;14.50;78.80;;;;;;4967846;28;20035;-79
2022/05/08 03:17:18;;;;;;;1.13;1.00;;;14.40;78.80;;;;;;4960959;28;20026;-79
2022/05/08 03:19:44;;;;;;;1.02;0.93;;;14.40;78.70;;;;;;4960835;28;20496;-79
2022/05/08 03:22:10;;;;;;;1.30;1.00;;;14.40;78.90;;;;;;4960452;28;20046;-79
2022/05/08 03:24:35;;;;;;;1.00;0.90;;;14.30;79.30;;;;;;4963087;28;20030;-79
2022/05/08 03:27:01;;;;;;;1.20;1.05;;;14.30;79.30;;;;;;4959940;28;20031;-79
2022/05/08 03:29:27;;;;;;;1.75;1.05;;;14.20;79.40;;;;;;4945934;28;20948;-79
2022/05/08 03:31:53;;;;;;;0.98;0.90;;;14.20;79.70;;;;;;4955682;28;20045;-79
2022/05/08 03:34:21;;;;;;;1.38;1.13;;;14.20;80.00;;;;;;4962161;28;20043;-78
2022/05/08 03:36:47;;;;;;;1.25;1.15;;;14.20;79.90;;;;;;4961774;28;20034;-79
2022/05/08 03:39:12;;;;;;;1.67;1.27;;;14.20;79.90;;;;;;4959546;28;20108;-79
2022/05/08 03:41:39;;;;;;;1.23;1.13;;;14.20;79.70;;;;;;4957368;28;20073;-78
2022/05/08 03:44:05;;;;;;;2.08;1.52;;;14.20;79.80;;;;;;4961071;28;20058;-79
2022/05/08 03:46:31;;;;;;;1.42;1.23;;;14.30;79.70;;;;;;4962767;28;20035;-78
2022/05/08 03:48:56;;;;;;;1.35;1.20;;;14.20;79.70;;;;;;4941558;28;20057;-79
2022/05/08 03:51:22;;;;;;;1.30;1.20;;;14.30;80.00;;;;;;4957851;28;20054;-78
2022/05/08 03:53:48;;;;;;;1.50;1.40;;;14.20;79.90;;;;;;4962308;28;20027;-79
2022/05/08 03:56:14;;;;;;;5.22;1.67;;;14.20;80.00;;;;;;4962274;28;20053;-79
2022/05/08 03:58:43;;;;;;;1.67;1.42;;;14.30;80.00;;;;;;4962665;28;20101;-79
2022/05/08 04:01:09;;;;;;;1.65;1.40;;;14.30;80.10;;;;;;4962002;28;20589;-79
2022/05/08 04:03:35;;;;;;;2.40;1.60;;;14.40;80.10;;;;;;4952786;28;20038;-78
2022/05/08 04:06:03;;;;;;;6.15;2.22;;;14.40;80.00;;;;;;4962438;28;20049;-79
2022/05/08 04:08:29;;;;;;;2.13;1.60;;;14.40;79.40;;;;;;4961940;28;20046;-79
2022/05/08 04:10:56;;;;;;;5.78;1.95;;;14.40;79.60;;;;;;4962966;28;20041;-79
2022/05/08 04:13:21;;;;;;;6.45;1.60;;;14.40;78.90;;;;;;4961812;28;20038;-79
2022/05/08 04:18:31;;;;;;;6.00;2.40;;;14.50;78.20;;;;;;4959579;28;20518;-79
2022/05/08 04:20:57;;;;;;;4.18;2.00;;;14.60;77.80;;;;;;4952270;28;20035;-79
2022/05/08 04:26:07;;;;;;;2.85;1.95;;;14.70;77.30;;;;;;4950016;28;20027;-79
2022/05/08 04:28:33;;;;;;;4.55;1.92;;;14.80;76.00;;;;;;4959850;28;20041;-79
2022/05/08 04:30:58;;;;;;;4.53;1.60;;;14.90;75.50;;;;;;4963059;28;21044;-78
2022/05/08 04:33:24;;;;;;;6.32;1.85;;;15.00;74.20;;;;;;4962860;28;20042;-78
2022/05/08 04:35:50;;;;;;;3.92;1.80;;;15.10;74.40;;;;;;4961952;28;20030;-79
2022/05/08 04:38:16;;;;;;;8.10;2.15;;;15.10;72.90;;;;;;4956600;28;20854;-79
2022/05/08 04:40:41;;;;;;;4.65;2.00;;;15.20;72.00;;;;;;4961924;28;20033;-79
2022/05/08 04:43:08;;;;;;;10.40;2.00;;;15.20;71.60;;;;;;4961688;28;20042;-78
2022/05/08 04:45:33;;;;;;;9.40;2.15;;;15.10;71.40;;;;;;4958876;28;20108;-78
2022/05/08 04:47:59;;;;;;;11.05;2.20;;;15.10;71.60;;;;;;4941537;29;20035;-78
2022/05/08 04:50:25;;;;;;;7.38;2.00;;;15.10;70.60;;;;;;4961659;28;20648;-79
2022/05/08 04:52:50;;;;;;;9.57;2.65;;;15.00;71.10;;;;;;4964680;28;20117;-79
2022/05/08 04:55:16;;;;;;;14.50;2.30;;;14.90;71.30;;;;;;4961088;28;20819;-79
2022/05/08 04:57:42;;;;;;;8.88;1.80;;;14.90;70.90;;;;;;4962046;28;20582;-79
2022/05/08 05:00:08;;;;;;;7.80;2.28;;;14.90;70.80;;;;;;4962139;28;20058;-79
2022/05/08 05:02:34;;;;;;;8.82;2.17;;;14.80;70.40;;;;;;4959096;28;20042;-79
2022/05/08 05:05:00;;;;;;;5.88;1.95;;;14.80;70.50;;;;;;4961734;28;20035;-79
2022/05/08 05:07:27;;;;;;;7.68;2.17;;;14.80;71.10;;;;;;4961226;28;20035;-79
2022/05/08 05:09:53;;;;;;;8.13;1.85;;;14.70;70.60;;;;;;4961526;28;20041;-79
2022/05/08 05:12:18;;;;;;;7.85;2.00;;;14.80;70.10;;;;;;4960426;28;20402;-79
2022/05/08 05:14:44;;;;;;;8.70;2.08;;;14.90;69.10;;;;;;4961572;28;20454;-80
2022/05/08 05:17:10;;;;;;;4.63;2.00;;;15.00;68.40;;;;;;4961347;28;20046;-79
2022/05/08 05:19:36;;;;;;;7.15;2.28;;;15.30;67.70;;;;;;4959643;28;20035;-79
2022/05/08 05:22:02;;;;;;;10.48;1.55;;;15.60;66.90;;;;;;4953218;28;20035;-80
2022/05/08 05:24:31;;;;;;;8.43;1.90;;;15.90;64.30;;;;;;4961163;28;20077;-79
2022/05/08 05:26:57;;;;;;;8.77;2.05;;;16.00;62.90;;;;;;4961873;28;20043;-80
2022/05/08 05:29:22;;;;;;;11.35;2.78;;;16.30;63.20;;;;;;4959718;28;20035;-79
2022/05/08 05:31:48;;;;;;;11.10;1.90;;;16.90;61.50;;;;;;4943922;28;20026;-79
2022/05/08 05:34:14;;;;;;;9.43;2.25;;;17.40;59.30;;;;;;4960263;28;20517;-79
2022/05/08 05:36:39;;;;;;;9.45;2.00;;;17.30;58.40;;;;;;4958769;28;20042;-79
2022/05/08 05:39:05;;;;;;;7.32;1.80;;;17.10;58.80;;;;;;4943704;28;20412;-79
2022/05/08 05:41:32;;;;;;;11.07;2.10;;;16.90;59.60;;;;;;4959703;28;20035;-79
2022/05/08 05:44:03;;;;;;;8.85;2.08;;;16.80;60.10;;;;;;4956265;28;20034;-79
2022/05/08 05:49:16;;;;;;;9.30;2.17;;;16.50;60.90;;;;;;4958974;28;20031;-79
2022/05/08 05:51:41;;;;;;;10.30;2.63;;;16.50;60.80;;;;;;4959036;28;20030;-79
2022/05/08 05:54:07;;;;;;;9.40;2.03;;;16.60;60.50;;;;;;4957854;28;20043;-79
2022/05/08 05:56:33;;;;;;;8.13;2.00;;;16.60;60.50;;;;;;4961146;28;20027;-78
2022/05/08 05:58:58;;;;;;;9.57;2.30;;;16.60;60.20;;;;;;4946850;28;20102;-79
2022/05/08 06:01:24;;;;;;;9.70;2.42;;;16.70;59.80;;;;;;4964499;28;20050;-79
2022/05/08 06:03:50;;;;;;;14.35;2.58;;;16.80;60.10;;;;;;4963838;28;20085;-79
2022/05/08 06:06:17;;;;;;;10.13;2.35;;;17.00;59.20;;;;;;4955743;28;20035;-79
2022/05/08 06:08:43;;;;;;;8.98;1.70;;;17.00;58.50;;;;;;4963004;28;20023;-80
2022/05/08 06:11:09;;;;;;;9.70;1.85;;;17.00;58.60;;;;;;4960080;28;20749;-79
2022/05/08 06:13:34;;;;;;;8.10;2.35;;;16.80;58.40;;;;;;4962492;28;20099;-79
2022/05/08 06:16:00;;;;;;;6.70;2.05;;;16.80;58.90;;;;;;4946476;28;20039;-79
2022/05/08 06:18:26;;;;;;;13.40;2.10;;;17.10;58.60;;;;;;4964012;28;20042;-79
2022/05/08 06:20:54;;;;;;;9.75;2.20;;;17.40;57.60;;;;;;4958672;28;20046;-80
2022/05/08 06:23:20;;;;;;;11.05;2.47;;;17.50;57.40;;;;;;4961825;28;20066;-79
2022/05/08 06:25:47;;;;;;;6.25;1.98;;;17.50;57.40;;;;;;4963871;28;20421;-79
2022/05/08 06:28:19;;;;;;;11.73;2.20;;;17.50;57.50;;;;;;4963136;28;20043;-79
2022/05/08 06:30:45;;;;;;;7.40;2.00;;;17.50;57.70;;;;;;4965021;28;20753;-79
2022/05/08 06:33:11;;;;;;;12.65;2.22;;;17.50;58.00;;;;;;4959039;28;20084;-79
2022/05/08 06:35:40;;;;;;;8.10;2.47;;;18.10;57.00;;;;;;4953074;28;20030;-79
2022/05/08 06:38:12;;;;;;;10.50;2.20;;;20.30;52.20;;;;;;4952944;28;20035;-79
2022/05/08 06:40:41;;;;;;;10.07;2.70;;;21.80;48.50;;;;;;4962619;28;20030;-80
2022/05/08 06:43:08;;;;;;;8.82;2.10;;;21.30;47.50;;;;;;4954166;28;20063;-79
2022/05/08 06:45:34;;;;;;;10.57;2.40;;;20.40;49.70;;;;;;4957353;28;20043;-79
2022/05/08 06:48:05;;;;;;;15.35;2.75;;;19.50;51.40;;;;;;4958442;28;20081;-79
2022/05/08 06:50:33;;;;;;;9.52;2.50;;;18.80;53.50;;;;;;4959483;28;20557;-79
2022/05/08 06:52:59;;;;;;;11.80;2.45;;;18.30;55.10;;;;;;4956301;28;20034;-79
2022/05/08 06:55:25;;;;;;;7.95;2.40;;;18.00;56.00;;;;;;4956656;28;20031;-79
2022/05/08 06:57:50;;;;;;;9.27;2.05;;;17.80;56.20;;;;;;4963253;28;20554;-79
2022/05/08 07:03:06;;;;;;;18.95;2.53;;;17.70;57.00;;;;;;4957859;28;20163;-78
2022/05/08 07:05:36;;;;;;;20.40;2.50;;;17.60;57.90;;;;;;4962204;28;20069;-79
2022/05/08 07:08:01;;;;;;;11.93;2.42;;;17.70;57.30;;;;;;4962683;28;20023;-81
2022/05/08 07:10:27;;;;;;;9.38;2.30;;;17.90;57.20;;;;;;4957646;28;20105;-81
2022/05/08 07:12:55;;;;;;;10.93;2.30;;;17.80;56.50;;;;;;4959747;28;20065;-79
2022/05/08 07:15:21;;;;;;;10.23;2.20;;;18.00;57.00;;;;;;4957082;28;20037;-73
2022/05/08 07:17:47;;;;;;;12.73;2.30;;;18.30;56.80;;;;;;4953939;28;20042;-74
2022/05/08 07:20:12;;;;;;;12.27;2.47;;;18.40;55.40;;;;;;4965979;28;20043;-76
2022/05/08 07:22:39;;;;;;;15.82;2.33;;;18.40;56.10;;;;;;4960618;28;20038;-76
2022/05/08 07:25:06;;;;;;;10.20;2.40;;;18.30;56.50;;;;;;4962271;28;20085;-77
2022/05/08 07:27:36;;;;;;;14.02;3.00;;;18.20;56.20;;;;;;4965306;28;20490;-76
2022/05/08 07:30:04;;;;;;;16.17;2.55;;;18.20;56.70;;;;;;4963366;28;20118;-77
2022/05/08 07:32:30;;;;;;;12.10;2.63;;;18.20;57.40;;;;;;4948535;28;20029;-71
2022/05/08 07:37:41;;;;;;;11.70;2.33;;;18.10;57.10;;;;;;4959391;28;20137;-76
2022/05/08 07:40:07;;;;;;;13.90;3.03;;;18.20;57.30;;;;;;4961411;28;20046;-76
2022/05/08 07:42:33;;;;;;;15.93;3.28;;;18.30;56.80;;;;;;4947879;28;20062;-76
2022/05/08 07:44:58;;;;;;;12.45;3.00;;;18.50;55.80;;;;;;4958687;28;20027;-76
2022/05/08 07:47:24;;;;;;;9.13;2.38;;;18.50;54.90;;;;;;4963857;28;20047;-76
2022/05/08 07:49:50;;;;;;;10.25;2.80;;;18.60;55.90;;;;;;4962444;28;20020;-76
2022/05/08 07:52:16;;;;;;;10.90;2.58;;;18.70;55.50;;;;;;4959678;28;20893;-76
2022/05/08 07:54:44;;;;;;;14.95;2.83;;;18.80;54.00;;;;;;4966049;28;20070;-77
2022/05/08 07:57:09;;;;;;;10.05;2.20;;;18.80;53.40;;;;;;4965473;28;20050;-78
2022/05/08 07:59:35;;;;;;;16.55;2.58;;;18.90;53.90;;;;;;4962035;28;20035;-78
2022/05/08 08:02:02;;;;;;;11.00;2.20;;;19.20;53.90;;;;;;4965922;28;20117;-78
2022/05/08 08:04:28;;;;;;;8.48;2.25;;;19.50;53.00;;;;;;4965172;28;20037;-79
2022/05/08 08:06:54;;;;;;;10.75;2.67;;;19.80;51.60;;;;;;4948183;28;20113;-79
2022/05/08 08:09:20;;;;;;;11.73;2.45;;;20.00;49.10;;;;;;4958870;28;20169;-72
2022/05/08 08:11:46;;;;;;;16.30;2.80;;;19.90;50.50;;;;;;4958340;28;20030;-74
2022/05/08 08:14:13;;;;;;;10.95;2.60;;;20.10;50.20;;;;;;4962595;28;20035;-78
2022/05/08 08:16:39;;;;;;;13.90;3.00;;;20.10;50.30;;;;;;4957196;28;20035;-80
2022/05/08 08:19:05;;;;;;;14.77;3.08;;;19.90;50.50;;;;;;4961950;28;20045;-81
2022/05/08 08:21:31;;;;;;;8.82;2.10;;;19.90;50.80;;;;;;4964836;28;20023;-82
2022/05/08 08:23:57;;;;;;;9.07;2.72;;;19.70;50.30;;;;;;4966320;28;20030;-81
2022/05/08 08:26:23;;;;;;;11.77;2.35;;;19.70;51.40;;;;;;4965040;28;20038;-82
2022/05/08 08:28:49;;;;;;;11.80;2.60;;;19.60;51.60;;;;;;4965877;28;20213;-80
2022/05/08 08:31:15;;;;;;;14.15;2.92;;;19.70;51.90;;;;;;4964704;28;20026;-81
2022/05/08 08:33:42;;;;;;;10.65;2.00;;;20.10;51.20;;;;;;4962191;28;20030;-81
2022/05/08 08:36:09;;;;;;;11.10;2.35;;;20.80;49.40;;;;;;4965270;28;20077;-81
2022/05/08 08:38:36;;;;;;;9.18;2.22;;;21.10;48.80;;;;;;4964929;28;20031;-81
2022/05/08 08:41:04;;;;;;;15.10;2.50;;;21.00;49.90;;;;;;4964799;28;20030;-80
2022/05/08 08:47:42;;;;;;;7.47;2.30;;;20.90;49.40;;;;;;4964458;28;20035;-81
2022/05/08 08:49:06;;;;;;;10.50;2.58;;;20.70;50.00;;;;;;4959057;28;20034;-80
2022/05/08 08:51:33;;;;;;;11.68;2.35;;;20.90;49.30;;;;;;4955402;28;20558;-79
2022/05/08 08:53:59;;;;;;;11.77;2.88;;;22.20;47.20;;;;;;4956612;28;20058;-78
2022/05/08 08:56:27;;;;;;;7.60;2.00;;;22.80;46.00;;;;;;4960247;28;20037;-78
2022/05/08 08:58:53;;;;;;;14.23;2.83;;;22.70;45.70;;;;;;4962715;28;20042;-78
2022/05/08 09:01:18;;;;;;;9.32;2.10;;;22.30;47.00;;;;;;4960424;28;20400;-78
2022/05/08 09:03:44;;;;;;;8.73;2.22;;;22.10;48.40;;;;;;4959656;28;20205;-76
2022/05/08 09:06:10;;;;;;;5.68;1.60;;;22.40;47.40;;;;;;4954791;28;20065;-76
2022/05/08 09:08:36;;;;;;;11.63;3.05;;;22.70;46.40;;;;;;4955055;28;20419;-75
2022/05/08 09:11:02;;;;;;;8.52;2.38;;;23.40;45.40;;;;;;4950168;28;20035;-75
2022/05/08 09:13:29;;;;;;;11.35;2.47;;;23.40;45.90;;;;;;4954128;28;20038;-75
2022/05/08 09:16:06;;;;;;;9.10;2.17;;;22.80;45.40;;;;;;4962483;28;20038;-76
2022/05/08 09:18:45;;;;;;;8.10;2.25;;;22.20;46.90;;;;;;4962425;28;20383;-76
2022/05/08 09:24:12;;;;;;;11.68;1.95;;;21.90;48.00;;;;;;4961352;28;20043;-79
2022/05/08 09:26:39;;;;;;;12.27;2.22;;;21.90;48.10;;;;;;4958630;28;20027;-75
2022/05/08 09:29:07;;;;;;;9.27;2.20;;;22.50;45.90;;;;;;4954244;28;20500;-78
2022/05/08 09:31:42;;;;;;;8.10;1.95;;;23.10;43.30;;;;;;4956929;28;20023;-79
2022/05/08 09:34:08;;;;;;;10.10;2.00;;;23.30;43.90;;;;;;4957049;28;20054;-78
2022/05/08 09:36:35;;;;;;;6.38;1.70;;;23.20;44.40;;;;;;4966587;28;20037;-77
2022/05/08 09:39:03;;;;;;;10.85;2.20;;;23.70;42.40;;;;;;4948720;28;20078;-77
2022/05/08 09:41:30;;;;;;;10.98;2.33;;;24.30;40.00;;;;;;4959509;28;20035;-77
2022/05/08 09:44:11;;;;;;;9.30;2.20;;;24.00;40.60;;;;;;4963809;28;20023;-77
2022/05/08 09:46:38;;;;;;;11.82;1.90;;;23.50;41.80;;;;;;4961291;28;20031;-77
2022/05/08 09:49:07;;;;;;;5.85;1.85;;;23.20;43.10;;;;;;4963065;28;20035;-76
2022/05/08 09:51:36;;;;;;;10.52;2.10;;;23.10;42.40;;;;;;4964136;28;20043;-78
2022/05/08 09:54:01;;;;;;;11.13;2.33;;;23.00;42.70;;;;;;4960131;28;20031;-74
2022/05/08 09:56:28;;;;;;;6.90;1.88;;;23.00;43.20;;;;;;4965961;28;20100;-79
2022/05/08 09:58:54;;;;;;;9.90;2.00;;;24.10;40.90;;;;;;4960065;28;20035;-74
2022/05/08 10:01:20;;;;;;;8.98;2.05;;;27.00;36.20;;;;;;4963164;28;20041;-78
2022/05/08 10:03:47;;;;;;;4.85;1.67;;;27.70;34.80;;;;;;4959432;28;20041;-78
2022/05/08 10:06:14;;;;;;;5.85;1.75;;;27.20;34.60;;;;;;4962808;28;20127;-78
2022/05/08 10:08:43;;;;;;;4.70;1.95;;;26.80;35.20;;;;;;4963696;28;20026;-80
2022/05/08 10:14:06;;;;;;;10.55;2.28;;;25.00;39.00;;;;;;4959673;28;20614;-79
2022/05/08 10:17:02;;;;;;;5.50;1.65;;;24.40;39.60;;;;;;4965855;28;20150;-80
2022/05/08 10:19:28;;;;;;;3.88;1.50;;;24.20;39.60;;;;;;4962782;28;20130;-79
2022/05/08 10:21:56;;;;;;;6.47;1.55;;;24.00;39.70;;;;;;4962930;28;20193;-79
2022/05/08 10:24:34;;;;;;;9.10;2.05;;;24.00;39.80;;;;;;4959602;28;20042;-79
2022/05/08 10:27:13;;;;;;;5.32;1.80;;;24.00;40.90;;;;;;4955887;28;20031;-79
2022/05/08 10:29:39;;;;;;;5.68;1.50;;;24.10;36.90;;;;;;4963881;28;20070;-79
2022/05/08 10:32:10;;;;;;;5.00;1.50;;;24.20;35.90;;;;;;4960098;28;20118;-79
2022/05/08 10:34:40;;;;;;;5.88;1.80;;;24.10;35.60;;;;;;4959435;28;20808;-79
2022/05/08 10:37:11;;;;;;;8.98;1.75;;;24.50;34.70;;;;;;4962117;28;20035;-79
2022/05/08 10:39:45;;;;;;;5.45;1.60;;;25.30;33.80;;;;;;4961760;28;20034;-79
2022/05/08 10:42:44;;;;;;;5.13;1.70;;;25.50;33.10;;;;;;4961691;28;20053;-79
2022/05/08 10:45:28;;;;;;;5.35;1.50;;;25.50;32.80;;;;;;4958488;28;20047;-81
2022/05/08 10:47:54;;;;;;;5.28;2.10;;;26.00;31.80;;;;;;4964651;28;20748;-80
2022/05/08 10:50:20;;;;;;;5.57;1.35;;;26.10;32.20;;;;;;4945278;28;20031;-80
2022/05/08 10:52:47;;;;;;;5.18;1.65;;;26.80;28.80;;;;;;4967251;28;20061;-80
2022/05/08 10:55:18;;;;;;;4.57;1.70;;;26.80;30.00;;;;;;4965825;28;20633;-74
2022/05/08 10:57:46;;;;;;;5.72;1.63;;;26.20;30.80;;;;;;4960284;28;20035;-73
2022/05/08 11:00:23;;;;;;;4.90;1.80;;;26.30;30.50;;;;;;4965617;28;20502;-75
2022/05/08 11:02:51;;;;;;;4.38;1.60;;;28.30;29.40;;;;;;4953318;28;20027;-75
2022/05/08 11:05:23;;;;;;;6.55;1.90;;;27.60;30.50;;;;;;4955059;28;20491;-77
2022/05/08 11:07:56;;;;;;;5.93;1.85;;;25.90;31.20;;;;;;4955111;28;20030;-79
2022/05/08 11:10:25;;;;;;;6.63;1.80;;;24.70;34.60;;;;;;4955813;28;20380;-79
2022/05/08 11:12:55;;;;;;;5.43;1.40;;;24.00;35.10;;;;;;4957122;28;20118;-79
2022/05/08 11:15:20;;;;;;;4.85;1.55;;;23.40;35.70;;;;;;4962460;28;20030;-78
2022/05/08 11:18:07;;;;;;;5.68;1.65;;;23.20;36.50;;;;;;4957459;28;20057;-76
2022/05/08 11:20:42;;;;;;;6.35;1.67;;;23.00;35.50;;;;;;4957233;28;20039;-79
2022/05/08 11:23:10;;;;;;;5.57;1.50;;;22.90;37.20;;;;;;4958447;28;20038;-79
2022/05/08 11:25:36;;;;;;;4.03;1.40;;;22.80;36.50;;;;;;4960306;28;20031;-79
2022/05/08 11:28:02;;;;;;;4.90;1.38;;;22.80;35.20;;;;;;4948544;28;20082;-79
2022/05/08 11:30:28;;;;;;;3.92;1.30;;;22.80;34.40;;;;;;4949702;28;20042;-77
2022/05/08 11:38:23;;;;;;;9.32;2.63;;;22.60;34.00;;;;;;4966540;28;20031;-82
2022/05/08 11:40:50;;;;;;;14.07;2.20;;;22.60;34.90;;;;;;4965243;28;20018;-82
2022/05/08 11:43:37;;;;;;;17.05;11.05;;;22.70;35.20;;;;;;4951021;28;20050;-80
2022/05/08 11:46:03;;;;;;;6.47;2.05;;;22.70;34.40;;;;;;4936594;28;20787;-80
2022/05/08 11:48:37;;;;;;;5.85;1.60;;;22.70;34.90;;;;;;4965538;28;20035;-80
2022/05/08 11:51:04;;;;;;;6.28;1.73;;;22.80;36.10;;;;;;4966466;28;20033;-80
2022/05/08 11:53:51;;;;;;;4.47;1.40;;;22.80;35.80;;;;;;4960195;28;20142;-78
2022/05/08 11:56:35;;;;;;;;;;;22.80;36.00;;;;;;4959609;28;20038;-71
2022/05/08 11:59:03;;;;;;;4.07;1.40;;;22.90;37.10;;;;;;4962092;28;19918;-75
2022/05/08 12:01:30;;;;;;;5.10;1.08;;;22.80;36.50;;;;;;4956545;28;20510;-75
2022/05/08 12:04:20;;;;;;;6.00;1.65;;;22.80;35.40;;;;;;4961314;28;20031;-76
2022/05/08 12:06:59;;;;;;;2.75;1.33;;;22.90;36.70;;;;;;4937252;28;20061;-76
2022/05/08 12:09:28;;;;;;;4.97;1.40;;;22.80;35.60;;;;;;4964221;28;20670;-76
2022/05/08 12:11:54;;;;;;;4.18;1.40;;;22.60;36.10;;;;;;4957169;28;20031;-76
2022/05/08 12:14:30;;;;;;;7.78;1.63;;;22.60;35.60;;;;;;4965303;28;20081;-75
2022/05/08 12:17:01;;;;;;;3.45;1.38;;;22.60;35.50;;;;;;4955278;28;20031;-75
2022/05/08 12:19:27;;;;;;;4.25;1.50;;;22.60;34.00;;;;;;4958220;28;20039;-76
2022/05/08 12:21:54;;;;;;;5.78;1.50;;;22.60;35.70;;;;;;4950957;28;20050;-75
2022/05/08 12:24:21;;;;;;;5.95;1.98;;;22.50;36.40;;;;;;4959291;28;20041;-75
2022/05/08 12:26:47;;;;;;;5.78;1.67;;;22.40;35.70;;;;;;4959778;28;20042;-74
2022/05/08 12:29:16;;;;;;;7.18;1.50;;;22.20;35.50;;;;;;4956952;28;20030;-76
2022/05/08 12:31:41;;;;;;;4.50;1.40;;;22.20;37.00;;;;;;4959070;28;20034;-75
2022/05/08 12:34:10;;;;;;;5.25;1.65;;;22.30;36.90;;;;;;4958526;28;20027;-76
2022/05/08 12:36:39;;;;;;;6.80;1.40;;;22.40;35.60;;;;;;4955515;28;20046;-76
2022/05/08 12:39:05;;;;;;;5.85;1.40;;;22.50;35.30;;;;;;4949586;28;20481;-75
2022/05/08 12:41:31;;;;;;;2.33;1.10;;;22.40;34.40;;;;;;4952762;28;20122;-75
2022/05/08 12:43:57;;;;;;;4.57;1.33;;;22.30;34.10;;;;;;4962175;28;20427;-76
2022/05/08 12:46:22;;;;;;;5.22;1.58;;;22.40;35.40;;;;;;4955740;28;20042;-76
2022/05/08 12:48:49;;;;;;;6.47;1.60;;;22.40;34.30;;;;;;4943000;28;20034;-79
2022/05/08 12:51:14;;;;;;;5.22;1.65;;;22.30;35.20;;;;;;4957460;28;20035;-78
2022/05/08 12:53:41;;;;;;;5.55;1.85;;;22.30;36.10;;;;;;4962454;28;20038;-80
2022/05/08 12:56:07;;;;;;;8.55;1.52;;;22.30;34.90;;;;;;4964756;28;20038;-82
2022/05/08 13:01:17;;;;;;;5.78;1.23;;;22.40;34.70;;;;;;4963822;28;20043;-84
2022/05/08 13:03:43;;;;;;;5.50;1.38;;;22.50;33.80;;;;;;4964823;28;20045;-83
2022/05/08 13:06:09;;;;;;;3.47;1.35;;;22.50;34.20;;;;;;4965972;28;20128;-77
2022/05/08 13:08:34;;;;;;;4.25;1.27;;;22.40;33.60;;;;;;4964743;28;20026;-84
2022/05/08 13:11:02;;;;;;;5.70;1.65;;;22.40;34.50;;;;;;4969054;28;20031;-82
2022/05/08 13:13:32;;;;;;;3.95;1.20;;;22.30;34.10;;;;;;4959479;28;20051;-79
2022/05/08 13:15:58;;;;;;;3.03;1.20;;;22.20;33.80;;;;;;4948140;29;20039;-79
2022/05/08 13:18:24;;;;;;;6.90;2.35;;;22.10;33.50;;;;;;4968449;28;20142;-79
2022/05/08 13:20:50;;;;;;;4.63;1.63;;;22.10;33.80;;;;;;4960904;28;20542;-72
2022/05/08 13:23:16;;;;;;;3.33;0.98;;;22.00;33.70;;;;;;4961389;28;20093;-80